sensor_id;sensor_type;location;lat;lon;timestamp;temperature;humidity
15483;DHT22;7843;50.330;7.312;2023-11-19T00:00:07;9.40;99.90
15483;DHT22;7843;50.330;7.312;2023-11-19T00:02:41;9.40;99.90
15483;DHT22;7843;50.330;7.312;2023-11-19T00:05:11;9.40;99.90
15483;DHT22;7843;50.330;7.312;2023-11-19T00:07:38;9.40;99.90
15483;DHT22;7843;50.330;7.312;2023-11-19T00:10:12;9.50;99.90
15483;DHT22;7843;50.330;7.312;2023-11-19T00:12:43;9.50;99.90
15483;DHT22;7843;50.330;7.312;2023-11-19T00:15:11;9.50;99.90
15483;DHT22;7843;50.330;7.312;2023-11-19T00:17:39;9.50;99.90
15483;DHT22;7843;50.330;7.312;2023-11-19T00:20:07;9.40;99.90
15483;DHT22;7843;50.330;7.312;2023-11-19T00:22:34;9.50;99.90
15483;DHT22;7843;50.330;7.312;2023-11-19T00:25:01;9.50;99.90
15483;DHT22;7843;50.330;7.312;2023-11-19T00:27:28;9.50;99.90
15483;DHT22;7843;50.330;7.312;2023-11-19T00:29:55;9.60;99.90
15483;DHT22;7843;50.330;7.312;2023-11-19T00:32:22;9.60;99.90
15483;DHT22;7843;50.330;7.312;2023-11-19T00:34:49;9.60;99.90
15483;DHT22;7843;50.330;7.312;2023-11-19T00:37:16;9.70;99.90
15483;DHT22;7843;50.330;7.312;2023-11-19T00:39:43;9.60;99.90
15483;DHT22;7843;50.330;7.312;2023-11-19T00:42:10;9.60;99.90
15483;DHT22;7843;50.330;7.312;2023-11-19T00:44:37;9.60;99.90
15483;DHT22;7843;50.330;7.312;2023-11-19T00:47:04;9.60;99.90
15483;DHT22;7843;50.330;7.312;2023-11-19T00:49:31;9.50;99.90
15483;DHT22;7843;50.330;7.312;2023-11-19T00:52:01;9.60;99.90
15483;DHT22;7843;50.330;7.312;2023-11-19T00:54:28;9.60;99.90
15483;DHT22;7843;50.330;7.312;2023-11-19T00:56:55;9.60;99.90
15483;DHT22;7843;50.330;7.312;2023-11-19T00:59:22;9.60;99.90
15483;DHT22;7843;50.330;7.312;2023-11-19T01:01:49;9.70;99.90
15483;DHT22;7843;50.330;7.312;2023-11-19T01:04:18;9.80;99.90
15483;DHT22;7843;50.330;7.312;2023-11-19T01:06:45;9.70;99.90
15483;DHT22;7843;50.330;7.312;2023-11-19T01:09:15;9.70;99.90
15483;DHT22;7843;50.330;7.312;2023-11-19T01:11:41;9.70;99.90
15483;DHT22;7843;50.330;7.312;2023-11-19T01:14:08;9.60;99.90
15483;DHT22;7843;50.330;7.312;2023-11-19T01:16:35;9.70;99.90
15483;DHT22;7843;50.330;7.312;2023-11-19T01:19:02;9.70;99.90
15483;DHT22;7843;50.330;7.312;2023-11-19T01:21:34;9.70;99.90
15483;DHT22;7843;50.330;7.312;2023-11-19T01:24:01;9.60;99.90
15483;DHT22;7843;50.330;7.312;2023-11-19T01:26:29;9.70;99.90
15483;DHT22;7843;50.330;7.312;2023-11-19T01:28:56;9.70;99.90
15483;DHT22;7843;50.330;7.312;2023-11-19T01:31:23;9.70;99.90
15483;DHT22;7843;50.330;7.312;2023-11-19T01:33:49;9.80;99.90
15483;DHT22;7843;50.330;7.312;2023-11-19T01:36:16;9.70;99.90
15483;DHT22;7843;50.330;7.312;2023-11-19T01:38:43;9.70;99.90
15483;DHT22;7843;50.330;7.312;2023-11-19T01:41:10;9.70;99.90
15483;DHT22;7843;50.330;7.312;2023-11-19T01:43:38;9.70;99.90
15483;DHT22;7843;50.330;7.312;2023-11-19T01:46:05;9.70;99.90
15483;DHT22;7843;50.330;7.312;2023-11-19T01:48:34;9.70;99.90
15483;DHT22;7843;50.330;7.312;2023-11-19T01:51:03;9.70;99.90
15483;DHT22;7843;50.330;7.312;2023-11-19T01:53:31;9.70;99.90
15483;DHT22;7843;50.330;7.312;2023-11-19T01:55:58;9.70;99.90
15483;DHT22;7843;50.330;7.312;2023-11-19T01:58:25;9.70;99.90
15483;DHT22;7843;50.330;7.312;2023-11-19T02:00:52;9.70;99.90
15483;DHT22;7843;50.330;7.312;2023-11-19T02:03:20;9.70;99.90
15483;DHT22;7843;50.330;7.312;2023-11-19T02:05:48;9.70;99.90
15483;DHT22;7843;50.330;7.312;2023-11-19T02:08:16;9.60;99.90
15483;DHT22;7843;50.330;7.312;2023-11-19T02:10:42;9.60;99.90
15483;DHT22;7843;50.330;7.312;2023-11-19T02:13:09;9.60;99.90
15483;DHT22;7843;50.330;7.312;2023-11-19T02:15:36;9.60;99.90
15483;DHT22;7843;50.330;7.312;2023-11-19T02:18:26;9.50;99.90
15483;DHT22;7843;50.330;7.312;2023-11-19T02:20:56;9.40;99.90
15483;DHT22;7843;50.330;7.312;2023-11-19T02:23:24;9.50;99.90
15483;DHT22;7843;50.330;7.312;2023-11-19T02:28:29;9.50;99.90
15483;DHT22;7843;50.330;7.312;2023-11-19T02:30:56;9.50;99.90
15483;DHT22;7843;50.330;7.312;2023-11-19T02:33:23;9.50;99.90
15483;DHT22;7843;50.330;7.312;2023-11-19T02:35:51;9.50;99.90
15483;DHT22;7843;50.330;7.312;2023-11-19T02:38:18;9.60;99.90
15483;DHT22;7843;50.330;7.312;2023-11-19T02:40:44;9.60;99.90
15483;DHT22;7843;50.330;7.312;2023-11-19T02:43:11;9.60;99.90
15483;DHT22;7843;50.330;7.312;2023-11-19T02:45:38;9.60;99.90
15483;DHT22;7843;50.330;7.312;2023-11-19T02:48:05;9.60;99.90
15483;DHT22;7843;50.330;7.312;2023-11-19T02:50:32;9.60;99.90
15483;DHT22;7843;50.330;7.312;2023-11-19T02:52:59;9.60;99.90
15483;DHT22;7843;50.330;7.312;2023-11-19T02:55:27;9.60;99.90
15483;DHT22;7843;50.330;7.312;2023-11-19T02:57:57;9.70;99.90
15483;DHT22;7843;50.330;7.312;2023-11-19T03:00:29;9.80;99.90
15483;DHT22;7843;50.330;7.312;2023-11-19T03:03:00;9.80;99.90
15483;DHT22;7843;50.330;7.312;2023-11-19T03:05:36;9.80;99.90
15483;DHT22;7843;50.330;7.312;2023-11-19T03:08:03;9.80;99.90
15483;DHT22;7843;50.330;7.312;2023-11-19T03:10:30;9.80;99.90
15483;DHT22;7843;50.330;7.312;2023-11-19T03:12:57;9.70;99.90
15483;DHT22;7843;50.330;7.312;2023-11-19T03:15:26;9.70;99.90
15483;DHT22;7843;50.330;7.312;2023-11-19T03:17:53;9.80;99.90
15483;DHT22;7843;50.330;7.312;2023-11-19T03:20:20;9.70;99.90
15483;DHT22;7843;50.330;7.312;2023-11-19T03:22:47;9.60;99.90
15483;DHT22;7843;50.330;7.312;2023-11-19T03:25:14;9.60;99.90
15483;DHT22;7843;50.330;7.312;2023-11-19T03:27:40;9.50;99.90
15483;DHT22;7843;50.330;7.312;2023-11-19T03:30:10;9.60;99.90
15483;DHT22;7843;50.330;7.312;2023-11-19T03:32:38;9.50;99.90
15483;DHT22;7843;50.330;7.312;2023-11-19T03:35:05;9.40;99.90
15483;DHT22;7843;50.330;7.312;2023-11-19T03:37:35;9.40;99.90
15483;DHT22;7843;50.330;7.312;2023-11-19T03:40:03;9.40;99.90
15483;DHT22;7843;50.330;7.312;2023-11-19T03:42:30;9.40;99.90
15483;DHT22;7843;50.330;7.312;2023-11-19T03:44:57;9.40;99.90
15483;DHT22;7843;50.330;7.312;2023-11-19T03:47:24;9.40;99.90
15483;DHT22;7843;50.330;7.312;2023-11-19T03:49:51;9.50;99.90
15483;DHT22;7843;50.330;7.312;2023-11-19T03:52:18;9.40;99.90
15483;DHT22;7843;50.330;7.312;2023-11-19T03:54:45;9.40;99.90
15483;DHT22;7843;50.330;7.312;2023-11-19T03:57:12;9.40;99.90
15483;DHT22;7843;50.330;7.312;2023-11-19T03:59:39;9.40;99.90
15483;DHT22;7843;50.330;7.312;2023-11-19T04:02:06;9.30;99.90
15483;DHT22;7843;50.330;7.312;2023-11-19T04:04:33;9.30;99.90
15483;DHT22;7843;50.330;7.312;2023-11-19T04:07:01;9.30;99.90
15483;DHT22;7843;50.330;7.312;2023-11-19T04:09:29;9.20;99.90
15483;DHT22;7843;50.330;7.312;2023-11-19T04:11:57;9.20;99.90
15483;DHT22;7843;50.330;7.312;2023-11-19T04:14:24;9.20;99.90
15483;DHT22;7843;50.330;7.312;2023-11-19T04:16:51;9.10;99.90
15483;DHT22;7843;50.330;7.312;2023-11-19T04:19:19;9.10;99.90
15483;DHT22;7843;50.330;7.312;2023-11-19T04:21:46;9.00;99.90
15483;DHT22;7843;50.330;7.312;2023-11-19T04:24:13;8.90;99.90
15483;DHT22;7843;50.330;7.312;2023-11-19T04:26:45;9.00;99.90
15483;DHT22;7843;50.330;7.312;2023-11-19T04:29:13;8.90;99.90
15483;DHT22;7843;50.330;7.312;2023-11-19T04:31:41;8.80;99.90
15483;DHT22;7843;50.330;7.312;2023-11-19T04:34:08;8.70;99.90
15483;DHT22;7843;50.330;7.312;2023-11-19T04:36:35;8.70;99.90
15483;DHT22;7843;50.330;7.312;2023-11-19T04:39:04;8.60;99.90
15483;DHT22;7843;50.330;7.312;2023-11-19T04:41:36;8.60;99.90
15483;DHT22;7843;50.330;7.312;2023-11-19T04:44:03;8.60;99.90
15483;DHT22;7843;50.330;7.312;2023-11-19T04:46:30;8.50;99.90
15483;DHT22;7843;50.330;7.312;2023-11-19T04:48:56;8.40;99.90
15483;DHT22;7843;50.330;7.312;2023-11-19T04:51:23;8.30;99.90
15483;DHT22;7843;50.330;7.312;2023-11-19T04:53:50;8.40;99.90
15483;DHT22;7843;50.330;7.312;2023-11-19T04:56:17;8.40;99.90
15483;DHT22;7843;50.330;7.312;2023-11-19T04:58:46;8.50;99.90
15483;DHT22;7843;50.330;7.312;2023-11-19T05:01:15;8.60;99.90
15483;DHT22;7843;50.330;7.312;2023-11-19T05:03:43;8.60;99.90
15483;DHT22;7843;50.330;7.312;2023-11-19T05:06:10;8.60;99.90
15483;DHT22;7843;50.330;7.312;2023-11-19T05:08:37;8.60;99.90
15483;DHT22;7843;50.330;7.312;2023-11-19T05:11:04;8.40;99.90
15483;DHT22;7843;50.330;7.312;2023-11-19T05:13:32;8.30;99.90
15483;DHT22;7843;50.330;7.312;2023-11-19T05:15:59;8.20;99.90
15483;DHT22;7843;50.330;7.312;2023-11-19T05:18:26;8.20;99.90
15483;DHT22;7843;50.330;7.312;2023-11-19T05:20:52;8.20;99.90
15483;DHT22;7843;50.330;7.312;2023-11-19T05:23:19;8.20;99.90
15483;DHT22;7843;50.330;7.312;2023-11-19T05:25:47;8.10;99.90
15483;DHT22;7843;50.330;7.312;2023-11-19T05:28:14;8.00;99.90
15483;DHT22;7843;50.330;7.312;2023-11-19T05:30:41;7.90;99.90
15483;DHT22;7843;50.330;7.312;2023-11-19T05:33:07;7.90;99.90
15483;DHT22;7843;50.330;7.312;2023-11-19T05:35:35;7.80;99.90
15483;DHT22;7843;50.330;7.312;2023-11-19T05:38:02;7.70;99.90
15483;DHT22;7843;50.330;7.312;2023-11-19T05:40:31;7.70;99.90
15483;DHT22;7843;50.330;7.312;2023-11-19T05:42:57;7.60;99.90
15483;DHT22;7843;50.330;7.312;2023-11-19T05:45:24;7.60;99.90
15483;DHT22;7843;50.330;7.312;2023-11-19T05:47:51;7.60;99.90
15483;DHT22;7843;50.330;7.312;2023-11-19T05:50:19;7.50;99.90
15483;DHT22;7843;50.330;7.312;2023-11-19T05:52:46;7.50;99.90
15483;DHT22;7843;50.330;7.312;2023-11-19T05:55:13;7.50;99.90
15483;DHT22;7843;50.330;7.312;2023-11-19T05:57:40;7.50;99.90
15483;DHT22;7843;50.330;7.312;2023-11-19T06:00:10;7.50;99.90
15483;DHT22;7843;50.330;7.312;2023-11-19T06:02:39;7.50;99.90
15483;DHT22;7843;50.330;7.312;2023-11-19T06:05:06;7.50;99.90
15483;DHT22;7843;50.330;7.312;2023-11-19T06:07:33;7.40;99.90
15483;DHT22;7843;50.330;7.312;2023-11-19T06:10:00;7.50;99.90
15483;DHT22;7843;50.330;7.312;2023-11-19T06:12:27;7.60;99.90
15483;DHT22;7843;50.330;7.312;2023-11-19T06:14:54;7.50;99.90
15483;DHT22;7843;50.330;7.312;2023-11-19T06:17:21;7.60;99.90
15483;DHT22;7843;50.330;7.312;2023-11-19T06:19:47;7.70;99.90
15483;DHT22;7843;50.330;7.312;2023-11-19T06:22:14;7.60;99.90
15483;DHT22;7843;50.330;7.312;2023-11-19T06:24:41;7.50;99.90
15483;DHT22;7843;50.330;7.312;2023-11-19T06:27:08;7.70;99.90
15483;DHT22;7843;50.330;7.312;2023-11-19T06:29:34;8.00;99.90
15483;DHT22;7843;50.330;7.312;2023-11-19T06:32:01;8.30;99.90
15483;DHT22;7843;50.330;7.312;2023-11-19T06:34:39;8.40;99.90
15483;DHT22;7843;50.330;7.312;2023-11-19T06:37:07;8.70;99.90
15483;DHT22;7843;50.330;7.312;2023-11-19T06:39:35;8.80;99.90
15483;DHT22;7843;50.330;7.312;2023-11-19T06:42:02;8.80;99.90
15483;DHT22;7843;50.330;7.312;2023-11-19T06:44:29;8.80;99.90
15483;DHT22;7843;50.330;7.312;2023-11-19T06:46:56;8.90;99.90
15483;DHT22;7843;50.330;7.312;2023-11-19T06:49:22;8.80;99.90
15483;DHT22;7843;50.330;7.312;2023-11-19T06:51:49;9.10;99.90
15483;DHT22;7843;50.330;7.312;2023-11-19T06:54:16;9.30;99.90
15483;DHT22;7843;50.330;7.312;2023-11-19T06:56:43;9.40;99.90
15483;DHT22;7843;50.330;7.312;2023-11-19T06:59:09;9.50;99.90
15483;DHT22;7843;50.330;7.312;2023-11-19T07:01:36;9.50;99.90
15483;DHT22;7843;50.330;7.312;2023-11-19T07:04:03;9.50;99.90
15483;DHT22;7843;50.330;7.312;2023-11-19T07:06:35;9.70;99.90
15483;DHT22;7843;50.330;7.312;2023-11-19T07:09:03;9.50;99.90
15483;DHT22;7843;50.330;7.312;2023-11-19T07:11:40;9.50;99.90
15483;DHT22;7843;50.330;7.312;2023-11-19T07:14:07;9.60;99.90
15483;DHT22;7843;50.330;7.312;2023-11-19T07:16:35;9.70;99.90
15483;DHT22;7843;50.330;7.312;2023-11-19T07:19:08;9.60;99.90
15483;DHT22;7843;50.330;7.312;2023-11-19T07:21:35;9.50;99.90
15483;DHT22;7843;50.330;7.312;2023-11-19T07:24:06;9.60;99.90
15483;DHT22;7843;50.330;7.312;2023-11-19T07:26:33;9.60;99.90
15483;DHT22;7843;50.330;7.312;2023-11-19T07:29:00;9.60;99.90
15483;DHT22;7843;50.330;7.312;2023-11-19T07:31:28;9.80;99.90
15483;DHT22;7843;50.330;7.312;2023-11-19T07:33:55;9.80;99.90
15483;DHT22;7843;50.330;7.312;2023-11-19T07:36:21;10.00;99.90
15483;DHT22;7843;50.330;7.312;2023-11-19T07:38:48;10.00;99.90
15483;DHT22;7843;50.330;7.312;2023-11-19T07:41:15;9.90;99.90
15483;DHT22;7843;50.330;7.312;2023-11-19T07:43:45;10.00;99.90
15483;DHT22;7843;50.330;7.312;2023-11-19T07:46:13;10.10;99.90
15483;DHT22;7843;50.330;7.312;2023-11-19T07:48:40;10.10;99.90
15483;DHT22;7843;50.330;7.312;2023-11-19T07:51:10;10.10;99.90
15483;DHT22;7843;50.330;7.312;2023-11-19T07:53:37;10.30;99.90
15483;DHT22;7843;50.330;7.312;2023-11-19T07:56:05;10.50;99.90
15483;DHT22;7843;50.330;7.312;2023-11-19T07:58:32;10.60;99.90
15483;DHT22;7843;50.330;7.312;2023-11-19T08:00:59;10.60;99.90
15483;DHT22;7843;50.330;7.312;2023-11-19T08:03:26;10.60;99.90
15483;DHT22;7843;50.330;7.312;2023-11-19T08:05:56;10.60;99.90
15483;DHT22;7843;50.330;7.312;2023-11-19T08:08:25;10.60;99.90
15483;DHT22;7843;50.330;7.312;2023-11-19T08:10:52;10.50;99.90
15483;DHT22;7843;50.330;7.312;2023-11-19T08:13:20;10.50;99.90
15483;DHT22;7843;50.330;7.312;2023-11-19T08:15:47;10.60;99.90
15483;DHT22;7843;50.330;7.312;2023-11-19T08:18:14;10.70;99.90
15483;DHT22;7843;50.330;7.312;2023-11-19T08:20:40;10.80;99.90
15483;DHT22;7843;50.330;7.312;2023-11-19T08:23:08;10.80;99.90
15483;DHT22;7843;50.330;7.312;2023-11-19T08:25:35;10.90;99.80
15483;DHT22;7843;50.330;7.312;2023-11-19T08:28:02;10.90;99.90
15483;DHT22;7843;50.330;7.312;2023-11-19T08:30:30;10.90;99.80
15483;DHT22;7843;50.330;7.312;2023-11-19T08:32:57;11.00;99.70
15483;DHT22;7843;50.330;7.312;2023-11-19T08:35:25;11.10;97.50
15483;DHT22;7843;50.330;7.312;2023-11-19T08:37:52;11.30;97.20
15483;DHT22;7843;50.330;7.312;2023-11-19T08:40:19;11.30;97.80
15483;DHT22;7843;50.330;7.312;2023-11-19T08:42:46;11.20;98.70
15483;DHT22;7843;50.330;7.312;2023-11-19T08:45:13;11.20;99.00
15483;DHT22;7843;50.330;7.312;2023-11-19T08:47:40;11.20;98.50
15483;DHT22;7843;50.330;7.312;2023-11-19T08:50:07;11.20;99.90
15483;DHT22;7843;50.330;7.312;2023-11-19T08:52:34;11.10;99.90
15483;DHT22;7843;50.330;7.312;2023-11-19T08:55:01;11.10;99.50
15483;DHT22;7843;50.330;7.312;2023-11-19T08:57:29;11.20;98.90
15483;DHT22;7843;50.330;7.312;2023-11-19T08:59:55;11.40;96.90
15483;DHT22;7843;50.330;7.312;2023-11-19T09:02:22;11.40;98.20
15483;DHT22;7843;50.330;7.312;2023-11-19T09:04:49;11.50;97.10
15483;DHT22;7843;50.330;7.312;2023-11-19T09:07:17;11.50;97.70
15483;DHT22;7843;50.330;7.312;2023-11-19T09:09:43;11.50;96.90
15483;DHT22;7843;50.330;7.312;2023-11-19T09:12:10;11.60;97.40
15483;DHT22;7843;50.330;7.312;2023-11-19T09:14:37;11.60;97.20
15483;DHT22;7843;50.330;7.312;2023-11-19T09:17:04;11.70;97.10
15483;DHT22;7843;50.330;7.312;2023-11-19T09:19:32;11.60;99.90
15483;DHT22;7843;50.330;7.312;2023-11-19T09:21:59;11.50;98.70
15483;DHT22;7843;50.330;7.312;2023-11-19T09:24:25;11.60;96.20
15483;DHT22;7843;50.330;7.312;2023-11-19T09:26:52;11.70;97.10
15483;DHT22;7843;50.330;7.312;2023-11-19T09:29:21;11.70;96.70
15483;DHT22;7843;50.330;7.312;2023-11-19T09:31:48;11.70;98.40
15483;DHT22;7843;50.330;7.312;2023-11-19T09:34:14;11.80;96.30
15483;DHT22;7843;50.330;7.312;2023-11-19T09:36:41;11.80;97.30
15483;DHT22;7843;50.330;7.312;2023-11-19T09:39:13;11.90;95.90
15483;DHT22;7843;50.330;7.312;2023-11-19T09:41:44;12.00;94.70
15483;DHT22;7843;50.330;7.312;2023-11-19T09:44:12;12.00;95.70
15483;DHT22;7843;50.330;7.312;2023-11-19T09:46:41;12.10;95.50
15483;DHT22;7843;50.330;7.312;2023-11-19T09:49:08;12.20;95.50
15483;DHT22;7843;50.330;7.312;2023-11-19T09:51:36;12.30;94.60
15483;DHT22;7843;50.330;7.312;2023-11-19T09:54:03;12.30;94.50
15483;DHT22;7843;50.330;7.312;2023-11-19T09:56:30;12.30;95.30
15483;DHT22;7843;50.330;7.312;2023-11-19T09:58:59;12.30;95.70
15483;DHT22;7843;50.330;7.312;2023-11-19T10:01:26;12.40;95.10
15483;DHT22;7843;50.330;7.312;2023-11-19T10:03:55;12.40;94.70
15483;DHT22;7843;50.330;7.312;2023-11-19T10:06:23;12.50;95.50
15483;DHT22;7843;50.330;7.312;2023-11-19T10:08:51;12.50;95.20
15483;DHT22;7843;50.330;7.312;2023-11-19T10:11:18;12.50;95.30
15483;DHT22;7843;50.330;7.312;2023-11-19T10:13:44;12.60;95.60
15483;DHT22;7843;50.330;7.312;2023-11-19T10:16:14;12.60;95.70
15483;DHT22;7843;50.330;7.312;2023-11-19T10:18:46;12.60;95.80
15483;DHT22;7843;50.330;7.312;2023-11-19T10:21:13;12.70;94.00
15483;DHT22;7843;50.330;7.312;2023-11-19T10:23:54;12.70;92.80
15483;DHT22;7843;50.330;7.312;2023-11-19T10:26:23;12.80;95.00
15483;DHT22;7843;50.330;7.312;2023-11-19T10:28:50;12.80;93.70
15483;DHT22;7843;50.330;7.312;2023-11-19T10:31:18;12.90;94.30
15483;DHT22;7843;50.330;7.312;2023-11-19T10:33:45;13.00;95.00
15483;DHT22;7843;50.330;7.312;2023-11-19T10:36:12;13.00;97.10
15483;DHT22;7843;50.330;7.312;2023-11-19T10:38:40;13.10;93.30
15483;DHT22;7843;50.330;7.312;2023-11-19T10:41:07;13.20;91.90
15483;DHT22;7843;50.330;7.312;2023-11-19T10:43:43;13.30;92.20
15483;DHT22;7843;50.330;7.312;2023-11-19T10:46:14;13.30;92.70
15483;DHT22;7843;50.330;7.312;2023-11-19T10:48:41;13.30;92.00
15483;DHT22;7843;50.330;7.312;2023-11-19T10:51:08;13.40;94.10
15483;DHT22;7843;50.330;7.312;2023-11-19T10:53:38;13.50;94.60
15483;DHT22;7843;50.330;7.312;2023-11-19T10:56:10;13.50;93.20
15483;DHT22;7843;50.330;7.312;2023-11-19T10:58:44;13.50;91.10
15483;DHT22;7843;50.330;7.312;2023-11-19T11:01:19;13.50;92.20
15483;DHT22;7843;50.330;7.312;2023-11-19T11:03:51;13.50;92.80
15483;DHT22;7843;50.330;7.312;2023-11-19T11:06:21;13.50;94.60
15483;DHT22;7843;50.330;7.312;2023-11-19T11:08:49;13.40;94.30
15483;DHT22;7843;50.330;7.312;2023-11-19T11:11:16;13.50;92.80
15483;DHT22;7843;50.330;7.312;2023-11-19T11:13:50;13.50;93.90
15483;DHT22;7843;50.330;7.312;2023-11-19T11:16:19;13.60;92.50
15483;DHT22;7843;50.330;7.312;2023-11-19T11:18:47;13.60;91.70
15483;DHT22;7843;50.330;7.312;2023-11-19T11:21:20;13.60;90.90
15483;DHT22;7843;50.330;7.312;2023-11-19T11:24:27;13.50;91.90
15483;DHT22;7843;50.330;7.312;2023-11-19T11:27:38;13.60;92.00
15483;DHT22;7843;50.330;7.312;2023-11-19T11:30:25;13.50;93.10
15483;DHT22;7843;50.330;7.312;2023-11-19T11:38:36;14.00;92.40
15483;DHT22;7843;50.330;7.312;2023-11-19T11:41:24;14.00;90.50
15483;DHT22;7843;50.330;7.312;2023-11-19T11:43:54;13.90;90.20
15483;DHT22;7843;50.330;7.312;2023-11-19T11:49:07;13.80;91.10
15483;DHT22;7843;50.330;7.312;2023-11-19T11:57:07;13.50;89.40
15483;DHT22;7843;50.330;7.312;2023-11-19T11:59:50;13.40;91.30
15483;DHT22;7843;50.330;7.312;2023-11-19T12:02:21;13.40;91.30
15483;DHT22;7843;50.330;7.312;2023-11-19T12:04:50;13.50;91.10
15483;DHT22;7843;50.330;7.312;2023-11-19T12:07:23;13.70;89.90
15483;DHT22;7843;50.330;7.312;2023-11-19T12:10:06;13.90;89.30
15483;DHT22;7843;50.330;7.312;2023-11-19T12:12:34;14.00;88.40
15483;DHT22;7843;50.330;7.312;2023-11-19T12:15:04;14.00;88.60
15483;DHT22;7843;50.330;7.312;2023-11-19T12:20:02;13.90;90.50
15483;DHT22;7843;50.330;7.312;2023-11-19T12:22:29;13.90;89.20
15483;DHT22;7843;50.330;7.312;2023-11-19T12:24:56;13.90;89.10
15483;DHT22;7843;50.330;7.312;2023-11-19T12:27:23;14.00;90.00
15483;DHT22;7843;50.330;7.312;2023-11-19T12:29:50;14.00;86.90
15483;DHT22;7843;50.330;7.312;2023-11-19T12:32:17;14.00;89.20
15483;DHT22;7843;50.330;7.312;2023-11-19T12:34:45;14.10;89.00
15483;DHT22;7843;50.330;7.312;2023-11-19T12:37:12;14.20;88.70
15483;DHT22;7843;50.330;7.312;2023-11-19T12:39:38;14.30;89.10
15483;DHT22;7843;50.330;7.312;2023-11-19T12:42:06;14.30;88.40
15483;DHT22;7843;50.330;7.312;2023-11-19T12:44:33;14.30;90.70
15483;DHT22;7843;50.330;7.312;2023-11-19T12:47:05;14.30;90.40
15483;DHT22;7843;50.330;7.312;2023-11-19T12:49:33;14.10;91.30
15483;DHT22;7843;50.330;7.312;2023-11-19T12:52:00;13.90;90.50
15483;DHT22;7843;50.330;7.312;2023-11-19T12:54:36;13.90;91.30
15483;DHT22;7843;50.330;7.312;2023-11-19T12:57:04;13.90;89.20
15483;DHT22;7843;50.330;7.312;2023-11-19T12:59:31;14.10;90.60
15483;DHT22;7843;50.330;7.312;2023-11-19T13:01:58;14.50;88.40
15483;DHT22;7843;50.330;7.312;2023-11-19T13:04:29;14.60;89.00
15483;DHT22;7843;50.330;7.312;2023-11-19T13:06:59;14.70;87.80
15483;DHT22;7843;50.330;7.312;2023-11-19T13:09:29;14.60;88.70
15483;DHT22;7843;50.330;7.312;2023-11-19T13:11:56;14.40;87.50
15483;DHT22;7843;50.330;7.312;2023-11-19T13:14:23;14.20;90.10
15483;DHT22;7843;50.330;7.312;2023-11-19T13:16:50;14.00;90.10
15483;DHT22;7843;50.330;7.312;2023-11-19T13:19:17;14.00;89.30
15483;DHT22;7843;50.330;7.312;2023-11-19T13:21:46;14.00;91.10
15483;DHT22;7843;50.330;7.312;2023-11-19T13:24:14;14.10;91.40
15483;DHT22;7843;50.330;7.312;2023-11-19T13:26:41;14.10;89.20
15483;DHT22;7843;50.330;7.312;2023-11-19T13:29:08;14.20;90.20
15483;DHT22;7843;50.330;7.312;2023-11-19T13:31:37;14.30;90.20
15483;DHT22;7843;50.330;7.312;2023-11-19T13:34:04;14.40;91.10
15483;DHT22;7843;50.330;7.312;2023-11-19T13:36:33;14.40;90.10
15483;DHT22;7843;50.330;7.312;2023-11-19T13:39:01;14.30;91.60
15483;DHT22;7843;50.330;7.312;2023-11-19T13:41:28;14.20;90.50
15483;DHT22;7843;50.330;7.312;2023-11-19T13:43:54;14.10;90.60
15483;DHT22;7843;50.330;7.312;2023-11-19T13:46:21;14.00;88.70
15483;DHT22;7843;50.330;7.312;2023-11-19T13:48:48;13.80;91.60
15483;DHT22;7843;50.330;7.312;2023-11-19T13:51:16;13.60;89.70
15483;DHT22;7843;50.330;7.312;2023-11-19T13:53:43;13.50;89.10
15483;DHT22;7843;50.330;7.312;2023-11-19T13:56:12;13.50;88.90
15483;DHT22;7843;50.330;7.312;2023-11-19T13:58:39;13.40;89.90
15483;DHT22;7843;50.330;7.312;2023-11-19T14:01:07;13.30;89.90
15483;DHT22;7843;50.330;7.312;2023-11-19T14:03:34;13.30;91.20
15483;DHT22;7843;50.330;7.312;2023-11-19T14:06:00;13.30;89.50
15483;DHT22;7843;50.330;7.312;2023-11-19T14:08:28;13.30;91.00
15483;DHT22;7843;50.330;7.312;2023-11-19T14:10:54;13.30;90.70
15483;DHT22;7843;50.330;7.312;2023-11-19T14:13:23;13.20;89.40
15483;DHT22;7843;50.330;7.312;2023-11-19T14:15:50;13.10;89.30
15483;DHT22;7843;50.330;7.312;2023-11-19T14:18:18;13.00;90.00
15483;DHT22;7843;50.330;7.312;2023-11-19T14:20:44;12.90;90.70
15483;DHT22;7843;50.330;7.312;2023-11-19T14:23:11;12.70;90.40
15483;DHT22;7843;50.330;7.312;2023-11-19T14:25:38;12.60;91.30
15483;DHT22;7843;50.330;7.312;2023-11-19T14:28:05;12.60;90.20
15483;DHT22;7843;50.330;7.312;2023-11-19T14:30:32;12.50;91.20
15483;DHT22;7843;50.330;7.312;2023-11-19T14:32:59;12.40;91.90
15483;DHT22;7843;50.330;7.312;2023-11-19T14:35:25;12.30;92.00
15483;DHT22;7843;50.330;7.312;2023-11-19T14:37:52;12.30;93.20
15483;DHT22;7843;50.330;7.312;2023-11-19T14:40:19;12.20;93.10
15483;DHT22;7843;50.330;7.312;2023-11-19T14:42:46;12.10;94.10
15483;DHT22;7843;50.330;7.312;2023-11-19T14:45:13;12.00;95.40
15483;DHT22;7843;50.330;7.312;2023-11-19T14:47:40;11.80;96.50
15483;DHT22;7843;50.330;7.312;2023-11-19T14:50:07;11.90;94.80
15483;DHT22;7843;50.330;7.312;2023-11-19T14:52:35;11.80;95.60
15483;DHT22;7843;50.330;7.312;2023-11-19T14:55:03;11.70;95.60
15483;DHT22;7843;50.330;7.312;2023-11-19T14:57:30;11.70;96.10
15483;DHT22;7843;50.330;7.312;2023-11-19T14:59:57;11.60;96.40
15483;DHT22;7843;50.330;7.312;2023-11-19T15:02:24;11.60;96.30
15483;DHT22;7843;50.330;7.312;2023-11-19T15:04:51;11.60;95.40
15483;DHT22;7843;50.330;7.312;2023-11-19T15:07:17;11.70;95.90
15483;DHT22;7843;50.330;7.312;2023-11-19T15:09:44;11.80;95.00
15483;DHT22;7843;50.330;7.312;2023-11-19T15:12:12;11.80;95.00
15483;DHT22;7843;50.330;7.312;2023-11-19T15:14:38;11.70;94.10
15483;DHT22;7843;50.330;7.312;2023-11-19T15:17:05;11.80;93.00
15483;DHT22;7843;50.330;7.312;2023-11-19T15:19:33;11.80;91.70
15483;DHT22;7843;50.330;7.312;2023-11-19T15:22:00;11.80;92.20
15483;DHT22;7843;50.330;7.312;2023-11-19T15:24:31;11.80;93.00
15483;DHT22;7843;50.330;7.312;2023-11-19T15:26:58;11.80;92.10
15483;DHT22;7843;50.330;7.312;2023-11-19T15:29:28;11.90;91.50
15483;DHT22;7843;50.330;7.312;2023-11-19T15:31:55;11.80;92.20
15483;DHT22;7843;50.330;7.312;2023-11-19T15:34:22;11.80;92.70
15483;DHT22;7843;50.330;7.312;2023-11-19T15:36:49;11.70;92.80
15483;DHT22;7843;50.330;7.312;2023-11-19T15:39:16;11.70;93.40
15483;DHT22;7843;50.330;7.312;2023-11-19T15:41:43;11.60;94.40
15483;DHT22;7843;50.330;7.312;2023-11-19T15:44:10;11.50;94.80
15483;DHT22;7843;50.330;7.312;2023-11-19T15:46:40;11.40;93.70
15483;DHT22;7843;50.330;7.312;2023-11-19T15:49:08;11.50;94.00
15483;DHT22;7843;50.330;7.312;2023-11-19T15:51:35;11.40;94.40
15483;DHT22;7843;50.330;7.312;2023-11-19T15:54:01;11.30;94.90
15483;DHT22;7843;50.330;7.312;2023-11-19T15:56:28;11.10;95.90
15483;DHT22;7843;50.330;7.312;2023-11-19T15:58:57;10.90;97.20
15483;DHT22;7843;50.330;7.312;2023-11-19T16:01:24;10.70;97.70
15483;DHT22;7843;50.330;7.312;2023-11-19T16:03:50;10.50;98.60
15483;DHT22;7843;50.330;7.312;2023-11-19T16:06:18;10.40;98.80
15483;DHT22;7843;50.330;7.312;2023-11-19T16:08:45;10.30;99.30
15483;DHT22;7843;50.330;7.312;2023-11-19T16:11:12;10.20;99.50
15483;DHT22;7843;50.330;7.312;2023-11-19T16:13:39;10.10;99.90
15483;DHT22;7843;50.330;7.312;2023-11-19T16:16:06;10.10;99.90